createdAt,value
2023-05-21T00:02:20.838Z,12.36
2023-05-21T00:04:47.623Z,12.34
2023-05-21T00:07:14.344Z,12.33
2023-05-21T00:09:41.055Z,12.36
2023-05-21T00:12:07.998Z,12.34
2023-05-21T00:14:34.683Z,12.37
2023-05-21T00:17:01.409Z,12.33
2023-05-21T00:19:28.135Z,12.34
2023-05-21T00:21:54.850Z,12.36
2023-05-21T00:24:21.534Z,12.36
2023-05-21T00:26:48.251Z,12.34
2023-05-21T00:29:14.953Z,12.37
2023-05-21T00:31:41.732Z,12.33
2023-05-21T00:34:08.789Z,12.34
2023-05-21T00:36:35.710Z,12.34
2023-05-21T00:39:02.471Z,12.33
2023-05-21T00:41:29.245Z,12.33
2023-05-21T00:43:55.945Z,12.33
2023-05-21T00:46:22.758Z,12.34
2023-05-21T00:48:49.480Z,12.37
2023-05-21T00:51:16.172Z,12.34
2023-05-21T00:53:42.880Z,12.36
2023-05-21T00:56:09.769Z,12.39
2023-05-21T00:58:36.684Z,12.33
2023-05-21T01:01:03.402Z,12.32
2023-05-21T01:03:30.312Z,12.34
2023-05-21T01:05:57.138Z,12.36
2023-05-21T01:08:23.855Z,12.36
2023-05-21T01:10:50.764Z,12.33
2023-05-21T01:13:17.470Z,12.33
2023-05-21T01:15:44.178Z,12.30
2023-05-21T01:18:11.163Z,12.33
2023-05-21T01:20:37.920Z,12.34
2023-05-21T01:23:04.598Z,12.34
2023-05-21T01:25:31.282Z,12.33
2023-05-21T01:27:57.978Z,12.33
2023-05-21T01:30:24.689Z,12.34
2023-05-21T01:32:51.439Z,12.34
2023-05-21T01:35:18.169Z,12.34
2023-05-21T01:37:44.856Z,12.33
2023-05-21T01:40:11.528Z,12.33
2023-05-21T01:45:18.653Z,12.36
2023-05-21T01:47:45.526Z,12.33
2023-05-21T01:50:12.182Z,12.33
2023-05-21T01:52:39.057Z,12.34
2023-05-21T01:55:05.718Z,12.33
2023-05-21T01:57:32.622Z,12.33
2023-05-21T01:59:59.284Z,12.33
2023-05-21T02:02:26.028Z,12.32
2023-05-21T02:04:52.735Z,12.30
2023-05-21T02:07:19.380Z,12.33
2023-05-21T02:09:46.258Z,12.33
2023-05-21T02:12:13.160Z,12.33
2023-05-21T02:14:39.920Z,12.29
2023-05-21T02:17:06.609Z,12.32
2023-05-21T02:19:33.356Z,12.33
2023-05-21T02:22:00.153Z,12.32
2023-05-21T02:24:26.809Z,12.33
2023-05-21T02:26:53.684Z,12.30
2023-05-21T02:29:20.558Z,12.30
2023-05-21T02:31:47.227Z,12.33
2023-05-21T02:34:14.141Z,12.34
2023-05-21T02:36:40.801Z,12.32
2023-05-21T02:39:07.450Z,12.32
2023-05-21T02:41:34.103Z,12.30
2023-05-21T02:44:00.966Z,12.33
2023-05-21T02:46:27.665Z,12.33
2023-05-21T02:48:54.375Z,12.32
2023-05-21T02:51:21.238Z,12.33
2023-05-21T02:53:47.897Z,12.29
2023-05-21T02:56:14.794Z,12.32
2023-05-21T02:58:41.443Z,12.33
2023-05-21T03:01:08.329Z,12.30
2023-05-21T03:03:35.149Z,12.30
2023-05-21T03:06:01.856Z,12.32
2023-05-21T03:08:28.503Z,12.30
2023-05-21T03:10:55.172Z,12.32
2023-05-21T03:13:21.872Z,12.30
2023-05-21T03:15:48.555Z,12.30
2023-05-21T03:18:15.304Z,12.33
2023-05-21T03:20:42.248Z,12.29
2023-05-21T03:23:08.894Z,12.28
2023-05-21T03:25:35.943Z,12.30
2023-05-21T03:28:02.739Z,12.32
2023-05-21T03:30:29.404Z,12.33
2023-05-21T03:32:56.113Z,12.33
2023-05-21T03:35:22.777Z,12.30
2023-05-21T03:37:49.442Z,12.29
2023-05-21T03:40:16.110Z,12.28
2023-05-21T03:42:42.764Z,12.30
2023-05-21T03:45:09.430Z,12.29
2023-05-21T03:47:36.159Z,12.30
2023-05-21T03:50:02.891Z,12.29
2023-05-21T03:52:29.535Z,12.29
2023-05-21T03:54:56.183Z,12.28
2023-05-21T03:57:23.059Z,12.29
2023-05-21T03:59:49.720Z,12.32
2023-05-21T04:02:16.466Z,12.30
2023-05-21T04:04:43.176Z,12.29
2023-05-21T04:07:10.090Z,12.29
2023-05-21T04:09:36.936Z,12.30
2023-05-21T04:12:03.802Z,12.30
2023-05-21T04:14:30.477Z,12.29
2023-05-21T04:16:57.136Z,12.29
2023-05-21T04:19:23.839Z,12.30
2023-05-21T04:21:50.506Z,12.28
2023-05-21T04:24:17.196Z,12.30
2023-05-21T04:26:44.076Z,12.29
2023-05-21T04:29:10.726Z,12.29
2023-05-21T04:31:37.428Z,12.29
2023-05-21T04:34:04.124Z,12.30
2023-05-21T04:36:30.802Z,12.29
2023-05-21T04:38:57.488Z,12.28
2023-05-21T04:41:24.137Z,12.29
2023-05-21T04:43:50.783Z,12.30
2023-05-21T04:46:17.674Z,12.29
2023-05-21T04:48:44.607Z,12.29
2023-05-21T04:51:11.258Z,12.29
2023-05-21T04:53:38.123Z,12.30
2023-05-21T04:56:04.778Z,12.30
2023-05-21T04:58:31.659Z,12.30
2023-05-21T05:00:58.343Z,12.30
2023-05-21T05:03:25.185Z,12.29
2023-05-21T05:05:51.967Z,12.30
2023-05-21T05:08:18.622Z,12.32
2023-05-21T05:10:45.286Z,12.30
2023-05-21T05:13:11.942Z,12.32
2023-05-21T05:15:38.772Z,12.32
2023-05-21T05:18:05.574Z,12.30
2023-05-21T05:20:32.237Z,12.32
2023-05-21T05:22:58.912Z,12.33
2023-05-21T05:25:25.589Z,12.30
2023-05-21T05:27:52.479Z,12.33
2023-05-21T05:30:19.189Z,12.33
2023-05-21T05:32:45.904Z,12.32
2023-05-21T05:35:12.593Z,12.33
2023-05-21T05:37:39.243Z,12.32
2023-05-21T05:40:05.907Z,12.32
2023-05-21T05:42:32.771Z,12.33
2023-05-21T05:44:59.438Z,12.32
2023-05-21T05:47:26.145Z,12.33
2023-05-21T05:49:52.842Z,12.32
2023-05-21T05:52:19.520Z,12.34
2023-05-21T05:54:46.197Z,12.32
2023-05-21T05:57:12.865Z,12.32
2023-05-21T05:59:39.526Z,12.34
2023-05-21T06:02:06.192Z,12.33
2023-05-21T06:04:32.853Z,12.33
2023-05-21T06:06:59.510Z,12.34
2023-05-21T06:09:26.166Z,12.36
2023-05-21T06:11:53.038Z,12.34
2023-05-21T06:14:19.934Z,12.34
2023-05-21T06:16:46.600Z,12.34
2023-05-21T06:19:13.746Z,12.36
2023-05-21T06:21:40.687Z,12.36
2023-05-21T06:24:07.330Z,12.36
2023-05-21T06:26:34.222Z,12.36
2023-05-21T06:29:00.914Z,12.37
2023-05-21T06:31:27.587Z,12.36
2023-05-21T06:33:54.450Z,12.36
2023-05-21T06:36:21.535Z,12.37
2023-05-21T06:38:48.421Z,12.36
2023-05-21T06:41:15.086Z,12.39
2023-05-21T06:43:41.760Z,12.40
2023-05-21T06:46:08.485Z,12.40
2023-05-21T06:48:35.464Z,12.37
2023-05-21T06:51:02.127Z,12.41
2023-05-21T06:53:28.993Z,12.39
2023-05-21T06:55:55.872Z,12.40
2023-05-21T06:58:22.553Z,12.41
2023-05-21T07:00:49.348Z,12.43
2023-05-21T07:03:16.481Z,12.44
2023-05-21T07:05:43.251Z,12.46
2023-05-21T07:08:12.803Z,12.44
2023-05-21T07:10:39.485Z,12.46
2023-05-21T07:13:06.185Z,12.43
2023-05-21T07:15:32.904Z,12.44
2023-05-21T07:17:59.817Z,12.46
2023-05-21T07:20:26.751Z,12.47
2023-05-21T07:22:53.640Z,12.46
2023-05-21T07:25:20.291Z,12.49
2023-05-21T07:27:47.151Z,12.47
2023-05-21T07:30:13.840Z,12.47
2023-05-21T07:32:40.537Z,12.47
2023-05-21T07:35:07.440Z,12.49
2023-05-21T07:37:34.380Z,12.46
2023-05-21T07:40:01.092Z,12.49
2023-05-21T07:42:27.988Z,12.47
2023-05-21T07:44:54.656Z,12.47
2023-05-21T07:47:21.327Z,12.49
2023-05-21T07:49:48.019Z,12.50
2023-05-21T07:52:14.693Z,12.50
2023-05-21T07:54:41.354Z,12.53
2023-05-21T07:57:08.627Z,12.53
2023-05-21T07:59:35.329Z,12.54
2023-05-21T08:02:01.981Z,12.56
2023-05-21T08:04:31.091Z,12.56
2023-05-21T08:06:57.786Z,12.59
2023-05-21T08:09:24.439Z,12.61
2023-05-21T08:11:51.081Z,12.59
2023-05-21T08:14:17.752Z,12.63
2023-05-21T08:16:45.287Z,12.63
2023-05-21T08:19:12.016Z,12.64
2023-05-21T08:21:38.701Z,12.67
2023-05-21T08:24:05.369Z,12.70
2023-05-21T08:26:32.032Z,12.68
2023-05-21T08:28:58.687Z,12.70
2023-05-21T08:31:25.401Z,12.71
2023-05-21T08:33:52.091Z,12.73
2023-05-21T08:36:18.782Z,12.73
2023-05-21T08:38:45.653Z,12.74
2023-05-21T08:41:12.301Z,12.77
2023-05-21T08:43:38.952Z,12.76
2023-05-21T08:46:05.670Z,12.80
2023-05-21T08:48:32.409Z,12.77
2023-05-21T08:50:59.098Z,12.80
2023-05-21T08:53:28.741Z,12.80
2023-05-21T08:55:56.185Z,12.81
2023-05-21T08:58:23.077Z,12.83
2023-05-21T09:00:49.804Z,12.84
2023-05-21T09:03:16.668Z,12.85
2023-05-21T09:05:43.432Z,12.87
2023-05-21T09:08:10.315Z,12.87
2023-05-21T09:10:36.991Z,12.87
2023-05-21T09:13:03.882Z,12.91
2023-05-21T09:15:30.599Z,12.91
2023-05-21T09:17:57.532Z,12.91
2023-05-21T09:20:24.220Z,12.91
2023-05-21T09:22:50.877Z,12.92
2023-05-21T09:25:17.527Z,12.95
2023-05-21T09:27:44.417Z,12.98
2023-05-21T09:30:11.081Z,13.00
2023-05-21T09:32:37.804Z,12.98
2023-05-21T09:35:04.553Z,13.01
2023-05-21T09:37:31.201Z,13.05
2023-05-21T09:39:57.859Z,13.02
2023-05-21T09:42:24.512Z,13.02
2023-05-21T09:44:51.514Z,13.05
2023-05-21T09:47:18.940Z,13.05
2023-05-21T09:49:45.612Z,13.07
2023-05-21T09:52:12.480Z,13.08
2023-05-21T09:54:39.130Z,13.12
2023-05-21T09:57:05.792Z,13.08
2023-05-21T09:59:32.461Z,13.12
2023-05-21T10:01:59.150Z,13.11
2023-05-21T10:04:25.871Z,13.16
2023-05-21T10:06:52.571Z,13.15
2023-05-21T10:09:19.237Z,13.15
2023-05-21T10:11:46.108Z,13.14
2023-05-21T10:14:12.764Z,13.15
2023-05-21T10:16:39.514Z,13.18
2023-05-21T10:19:06.274Z,13.19
2023-05-21T10:21:32.977Z,13.21
2023-05-21T10:24:00.093Z,13.19
2023-05-21T10:26:26.764Z,13.18
2023-05-21T10:28:53.422Z,13.21
2023-05-21T10:31:20.144Z,13.18
2023-05-21T10:33:47.079Z,13.19
2023-05-21T10:36:13.737Z,13.19
2023-05-21T10:38:40.387Z,13.21
2023-05-21T10:41:07.049Z,13.21
2023-05-21T10:43:33.712Z,13.22
2023-05-21T10:46:00.397Z,13.22
2023-05-21T10:48:27.079Z,13.25
2023-05-21T10:50:53.737Z,13.23
2023-05-21T10:53:23.681Z,13.21
2023-05-21T10:55:50.343Z,13.22
2023-05-21T10:58:17.231Z,13.25
2023-05-21T11:00:43.889Z,13.26
2023-05-21T11:03:10.820Z,13.25
2023-05-21T11:05:37.555Z,13.26
2023-05-21T11:08:04.477Z,13.26
2023-05-21T11:10:31.131Z,13.29
2023-05-21T11:12:58.068Z,13.29
2023-05-21T11:15:24.739Z,13.26
2023-05-21T11:17:51.405Z,13.28
2023-05-21T11:20:18.093Z,13.28
2023-05-21T11:22:44.751Z,13.29
2023-05-21T11:25:11.400Z,13.29
2023-05-21T11:27:38.096Z,13.31
2023-05-21T11:30:04.978Z,13.34
2023-05-21T11:32:31.919Z,13.35
2023-05-21T11:34:58.813Z,13.32
2023-05-21T11:37:25.472Z,13.32
2023-05-21T11:39:52.357Z,13.34
2023-05-21T11:42:19.023Z,13.34
2023-05-21T11:44:45.699Z,13.35
2023-05-21T11:47:12.350Z,13.36
2023-05-21T11:49:39.012Z,13.39
2023-05-21T11:52:05.665Z,13.39
2023-05-21T11:54:32.319Z,13.39
2023-05-21T11:56:58.969Z,13.39
2023-05-21T11:59:25.619Z,13.39
2023-05-21T12:01:52.769Z,13.38
2023-05-21T12:04:19.443Z,13.42
2023-05-21T12:06:46.120Z,13.39
2023-05-21T12:09:12.789Z,13.41
2023-05-21T12:11:39.437Z,13.41
2023-05-21T12:14:06.242Z,13.43
2023-05-21T12:16:33.004Z,13.43
2023-05-21T12:18:59.937Z,13.48
2023-05-21T12:21:26.625Z,13.48
2023-05-21T12:23:53.504Z,13.46
2023-05-21T12:26:20.188Z,13.46
2023-05-21T12:28:46.845Z,13.46
2023-05-21T12:31:13.738Z,13.46
2023-05-21T12:33:40.401Z,13.46
2023-05-21T12:36:07.058Z,13.48
2023-05-21T12:38:33.717Z,13.51
2023-05-21T12:41:00.392Z,13.49
2023-05-21T12:43:27.055Z,13.51
2023-05-21T12:45:53.802Z,13.49
2023-05-21T12:48:20.691Z,13.51
2023-05-21T12:50:47.376Z,13.51
2023-05-21T12:53:14.029Z,13.51
2023-05-21T12:55:40.829Z,13.51
2023-05-21T12:58:07.552Z,13.49
2023-05-21T13:00:34.355Z,13.53
2023-05-21T13:03:01.492Z,13.56
2023-05-21T13:05:28.214Z,13.55
2023-05-21T13:07:55.079Z,13.55
2023-05-21T13:10:22.034Z,13.53
2023-05-21T13:12:48.928Z,13.58
2023-05-21T13:15:15.890Z,13.58
2023-05-21T13:17:42.601Z,13.56
2023-05-21T13:20:09.550Z,13.58
2023-05-21T13:22:36.354Z,13.56
2023-05-21T13:25:03.032Z,13.56
2023-05-21T13:27:29.684Z,13.58
2023-05-21T13:29:56.362Z,13.58
2023-05-21T13:32:23.086Z,13.58
2023-05-21T13:34:49.832Z,13.58
2023-05-21T13:37:16.480Z,13.56
2023-05-21T13:39:43.360Z,13.56
2023-05-21T13:42:10.011Z,13.55
2023-05-21T13:44:36.900Z,13.56
2023-05-21T13:47:03.676Z,13.55
2023-05-21T13:49:30.708Z,13.56
2023-05-21T13:51:57.364Z,13.55
2023-05-21T13:54:24.026Z,13.55
2023-05-21T13:56:50.912Z,13.58
2023-05-21T13:59:17.554Z,13.55
2023-05-21T14:01:44.229Z,13.56
2023-05-21T14:04:10.917Z,13.55
2023-05-21T14:06:37.596Z,13.55
2023-05-21T14:09:04.845Z,13.55
2023-05-21T14:11:31.509Z,13.55
2023-05-21T14:13:58.169Z,13.56
2023-05-21T14:16:24.972Z,13.55
2023-05-21T14:18:51.720Z,13.55
2023-05-21T14:21:18.407Z,13.55
2023-05-21T14:23:45.054Z,13.52
2023-05-21T14:26:11.727Z,13.55
2023-05-21T14:28:38.373Z,13.55
2023-05-21T14:31:07.510Z,13.53
2023-05-21T14:33:34.178Z,13.52
2023-05-21T14:36:00.840Z,13.55
2023-05-21T14:38:27.518Z,13.53
2023-05-21T14:40:54.417Z,13.53
2023-05-21T14:43:21.081Z,13.52
2023-05-21T14:45:47.792Z,13.51
2023-05-21T14:48:14.460Z,13.53
2023-05-21T14:50:41.339Z,13.53
2023-05-21T14:53:07.995Z,13.53
2023-05-21T14:55:36.769Z,13.52
2023-05-21T14:58:03.797Z,13.51
2023-05-21T15:00:30.656Z,13.52
2023-05-21T15:02:57.568Z,13.51
2023-05-21T15:05:24.308Z,13.51
2023-05-21T15:07:50.955Z,13.49
2023-05-21T15:10:18.731Z,13.49
2023-05-21T15:12:45.716Z,13.52
2023-05-21T15:15:12.380Z,13.52
2023-05-21T15:17:39.089Z,13.49
2023-05-21T15:20:05.824Z,13.52
2023-05-21T15:22:32.702Z,13.49
2023-05-21T15:25:02.683Z,13.49
2023-05-21T15:27:29.345Z,13.52
2023-05-21T15:29:56.229Z,13.51
2023-05-21T15:32:23.091Z,13.49
2023-05-21T15:34:49.941Z,13.49
2023-05-21T15:37:16.835Z,13.51
2023-05-21T15:39:43.500Z,13.49
2023-05-21T15:42:10.431Z,13.49
2023-05-21T15:44:37.096Z,13.48
2023-05-21T15:47:03.867Z,13.49
2023-05-21T15:49:30.547Z,13.49
2023-05-21T15:51:57.209Z,13.51
2023-05-21T15:54:24.082Z,13.49
2023-05-21T15:56:50.736Z,13.48
2023-05-21T15:59:18.121Z,13.49
2023-05-21T16:01:44.808Z,13.46
2023-05-21T16:04:11.823Z,13.46
2023-05-21T16:06:38.556Z,13.49
2023-05-21T16:09:05.230Z,13.48
2023-05-21T16:11:31.900Z,13.45
2023-05-21T16:13:58.761Z,13.48
2023-05-21T16:16:25.431Z,13.48
2023-05-21T16:18:52.348Z,13.46
2023-05-21T16:21:19.039Z,13.45
2023-05-21T16:23:45.693Z,13.45
2023-05-21T16:26:12.356Z,13.43
2023-05-21T16:28:39.229Z,13.45
2023-05-21T16:31:05.902Z,13.45
2023-05-21T16:33:32.797Z,13.46
2023-05-21T16:35:59.472Z,13.46
2023-05-21T16:38:26.333Z,13.48
2023-05-21T16:40:52.980Z,13.46
2023-05-21T16:43:19.842Z,13.46
2023-05-21T16:45:46.571Z,13.43
2023-05-21T16:48:13.550Z,13.46
2023-05-21T16:50:40.235Z,13.49
2023-05-21T16:53:06.908Z,13.45
2023-05-21T16:55:33.575Z,13.46
2023-05-21T16:58:00.257Z,13.46
2023-05-21T17:00:26.909Z,13.46
2023-05-21T17:02:53.633Z,13.46
2023-05-21T17:05:20.368Z,13.45
2023-05-21T17:07:47.016Z,13.43
2023-05-21T17:10:13.897Z,13.45
2023-05-21T17:12:40.570Z,13.46
2023-05-21T17:15:07.237Z,13.46
2023-05-21T17:17:33.926Z,13.48
2023-05-21T17:20:00.636Z,13.48
2023-05-21T17:22:27.283Z,13.45
2023-05-21T17:24:53.934Z,13.46
2023-05-21T17:27:20.588Z,13.46
2023-05-21T17:29:47.473Z,13.48
2023-05-21T17:32:14.123Z,13.45
2023-05-21T17:34:40.786Z,13.46
2023-05-21T17:37:07.468Z,13.46
2023-05-21T17:39:34.128Z,13.45
2023-05-21T17:42:00.780Z,13.48
2023-05-21T17:44:27.448Z,13.45
2023-05-21T17:46:54.138Z,13.46
2023-05-21T17:49:21.620Z,13.46
2023-05-21T17:51:48.277Z,13.51
2023-05-21T17:54:15.162Z,13.48
2023-05-21T17:56:42.759Z,13.49
2023-05-21T17:59:10.570Z,13.46
2023-05-21T18:01:37.276Z,13.48
2023-05-21T18:04:04.001Z,13.48
2023-05-21T18:06:30.708Z,13.48
2023-05-21T18:08:57.581Z,13.48
2023-05-21T18:11:24.466Z,13.46
2023-05-21T18:13:51.672Z,13.48
2023-05-21T18:16:18.355Z,13.46
2023-05-21T18:18:45.145Z,13.49
2023-05-21T18:21:12.083Z,13.46
2023-05-21T18:23:38.743Z,13.48
2023-05-21T18:26:05.598Z,13.48
2023-05-21T18:28:32.493Z,13.45
2023-05-21T18:30:59.161Z,13.48
2023-05-21T18:33:25.819Z,13.46
2023-05-21T18:35:52.486Z,13.48
2023-05-21T18:38:19.373Z,13.49
2023-05-21T18:40:46.271Z,13.46
2023-05-21T18:43:12.946Z,13.46
2023-05-21T18:45:39.867Z,13.45
2023-05-21T18:48:06.572Z,13.46
2023-05-21T18:50:33.255Z,13.46
2023-05-21T18:52:59.921Z,13.48
2023-05-21T18:55:26.861Z,13.48
2023-05-21T18:57:53.532Z,13.48
2023-05-21T19:00:22.849Z,13.46
2023-05-21T19:02:49.594Z,13.48
2023-05-21T19:05:16.610Z,13.46
2023-05-21T19:07:43.311Z,13.46
2023-05-21T19:10:10.170Z,13.48
2023-05-21T19:12:36.833Z,13.45
2023-05-21T19:15:03.999Z,13.46
2023-05-21T19:17:30.685Z,13.48
2023-05-21T19:19:57.357Z,13.46
2023-05-21T19:22:24.053Z,13.45
2023-05-21T19:24:50.711Z,13.43
2023-05-21T19:27:17.360Z,13.45
2023-05-21T19:29:44.031Z,13.45
2023-05-21T19:32:10.690Z,13.45
2023-05-21T19:34:37.338Z,13.43
2023-05-21T19:37:04.237Z,13.46
2023-05-21T19:39:31.122Z,13.45
2023-05-21T19:41:57.784Z,13.42
2023-05-21T19:44:24.460Z,13.46
2023-05-21T19:46:51.367Z,13.45
2023-05-21T19:49:18.031Z,13.45
2023-05-21T19:51:44.686Z,13.43
2023-05-21T19:54:11.345Z,13.45
2023-05-21T19:56:38.021Z,13.45
2023-05-21T19:59:04.717Z,13.43
2023-05-21T20:01:31.400Z,13.43
2023-05-21T20:03:58.121Z,13.45
2023-05-21T20:06:24.815Z,13.42
2023-05-21T20:08:51.464Z,13.43
2023-05-21T20:11:18.124Z,13.43
2023-05-21T20:13:44.991Z,13.45
2023-05-21T20:16:11.659Z,13.42
2023-05-21T20:18:38.930Z,13.43
2023-05-21T20:21:05.585Z,13.43
2023-05-21T20:23:32.242Z,13.42
2023-05-21T20:25:58.894Z,13.43
2023-05-21T20:28:25.774Z,13.43
2023-05-21T20:30:52.595Z,13.42
2023-05-21T20:33:19.346Z,13.43
2023-05-21T20:35:46.203Z,13.42
2023-05-21T20:38:13.087Z,13.45
2023-05-21T20:40:39.872Z,13.43
2023-05-21T20:43:06.615Z,13.42
2023-05-21T20:45:33.350Z,13.42
2023-05-21T20:48:00.047Z,13.42
2023-05-21T20:50:26.950Z,13.42
2023-05-21T20:52:53.586Z,13.43
2023-05-21T20:55:20.242Z,13.42
2023-05-21T20:57:46.911Z,13.43
2023-05-21T21:00:13.796Z,13.45
2023-05-21T21:02:40.603Z,13.43
2023-05-21T21:05:07.305Z,13.42
2023-05-21T21:07:34.009Z,13.43
2023-05-21T21:10:00.721Z,13.45
2023-05-21T21:12:27.387Z,13.43
2023-05-21T21:14:54.042Z,13.41
2023-05-21T21:17:20.713Z,13.43
2023-05-21T21:19:47.412Z,13.42
2023-05-21T21:22:14.075Z,13.43
2023-05-21T21:24:40.749Z,13.42
2023-05-21T21:27:07.409Z,13.43
2023-05-21T21:29:34.075Z,13.43
2023-05-21T21:32:00.757Z,13.41
2023-05-21T21:34:27.403Z,13.43
2023-05-21T21:36:54.271Z,13.42
2023-05-21T21:39:20.937Z,13.43
2023-05-21T21:41:47.598Z,13.42
2023-05-21T21:44:14.250Z,13.42
2023-05-21T21:46:40.923Z,13.45
2023-05-21T21:49:07.654Z,13.42
2023-05-21T21:51:34.538Z,13.41
2023-05-21T21:54:01.200Z,13.42
2023-05-21T21:56:27.851Z,13.42
2023-05-21T21:58:54.508Z,13.43
2023-05-21T22:01:21.191Z,13.42
2023-05-21T22:03:47.892Z,13.43
2023-05-21T22:06:14.547Z,13.43
2023-05-21T22:08:41.272Z,13.42
2023-05-21T22:11:07.949Z,13.43
2023-05-21T22:13:34.831Z,13.42
2023-05-21T22:16:01.507Z,13.42
2023-05-21T22:18:39.484Z,13.42
2023-05-21T22:21:06.714Z,13.42
2023-05-21T22:23:33.370Z,13.42
2023-05-21T22:26:00.053Z,13.45
2023-05-21T22:28:26.747Z,13.43
2023-05-21T22:30:53.453Z,13.43
2023-05-21T22:33:20.186Z,13.42
2023-05-21T22:35:46.874Z,13.43
2023-05-21T22:38:13.739Z,13.42
2023-05-21T22:40:40.705Z,13.42
2023-05-21T22:43:07.716Z,13.42
2023-05-21T22:45:34.394Z,13.43
2023-05-21T22:48:01.104Z,13.41
2023-05-21T22:50:27.785Z,13.42
2023-05-21T22:52:54.436Z,13.42
2023-05-21T22:55:21.088Z,13.43
2023-05-21T22:57:47.744Z,13.42
2023-05-21T23:00:14.410Z,13.41
2023-05-21T23:02:41.092Z,13.41
2023-05-21T23:05:07.844Z,13.42
2023-05-21T23:07:34.587Z,13.41
2023-05-21T23:10:01.285Z,13.41
2023-05-21T23:12:27.938Z,13.42
2023-05-21T23:14:54.585Z,13.41
2023-05-21T23:17:21.236Z,13.43
2023-05-21T23:19:47.904Z,13.43
2023-05-21T23:22:14.563Z,13.42
2023-05-21T23:24:41.218Z,13.41
2023-05-21T23:27:07.888Z,13.42
2023-05-21T23:29:34.547Z,13.41
2023-05-21T23:32:01.336Z,13.42
2023-05-21T23:34:28.044Z,13.41
2023-05-21T23:36:54.694Z,13.41
2023-05-21T23:39:21.350Z,13.42
2023-05-21T23:41:48.025Z,13.45
2023-05-21T23:44:14.701Z,13.42
2023-05-21T23:46:41.355Z,13.41
2023-05-21T23:49:08.029Z,13.43
2023-05-21T23:51:34.679Z,13.43
2023-05-21T23:54:01.363Z,13.43
2023-05-21T23:56:28.042Z,13.43
2023-05-21T23:58:54.702Z,13.45
